createdAt,value
2022-10-12T00:00:05.656Z,99910.91
2022-10-12T00:02:40.959Z,99914.88
2022-10-12T00:05:09.560Z,99917.25
2022-10-12T00:07:39.142Z,99904.16
2022-10-12T00:10:08.013Z,99906.19
2022-10-12T00:12:35.951Z,99901.75
2022-10-12T00:15:03.927Z,99887.34
2022-10-12T00:17:31.846Z,99886.53
2022-10-12T00:19:59.673Z,99889.00
2022-10-12T00:22:27.584Z,99893.28
2022-10-12T00:29:19.786Z,99902.06
2022-10-12T00:31:47.626Z,99902.50
2022-10-12T00:34:15.481Z,99900.44
2022-10-12T00:36:43.381Z,99892.41
2022-10-12T00:39:11.796Z,99894.50
2022-10-12T00:41:42.166Z,99894.09
2022-10-12T00:44:37.528Z,99887.19
2022-10-12T00:47:10.818Z,99887.91
2022-10-12T00:49:38.855Z,99896.44
2022-10-12T00:52:12.287Z,99897.59
2022-10-12T00:54:45.146Z,99898.34
2022-10-12T00:57:15.735Z,99886.53
2022-10-12T00:59:47.273Z,99881.06
2022-10-12T01:02:15.803Z,99882.19
2022-10-12T01:04:44.503Z,99891.03
2022-10-12T01:07:12.846Z,99895.75
2022-10-12T01:09:40.807Z,99897.41
2022-10-12T01:12:09.545Z,99894.28
2022-10-12T01:14:37.821Z,99897.88
2022-10-12T01:17:19.115Z,99886.94
2022-10-12T01:20:18.414Z,99881.78
2022-10-12T01:22:57.855Z,99891.03
2022-10-12T01:25:43.717Z,99884.72
2022-10-12T01:28:19.750Z,99889.06
2022-10-12T01:30:56.897Z,99878.66
2022-10-12T01:33:33.415Z,99881.78
2022-10-12T01:36:07.940Z,99876.31
2022-10-12T01:38:49.475Z,99878.78
2022-10-12T01:41:23.028Z,99881.19
2022-10-12T01:43:52.606Z,99872.38
2022-10-12T01:46:47.329Z,99874.41
2022-10-12T01:49:18.146Z,99868.84
2022-10-12T01:52:00.776Z,99874.41
2022-10-12T01:54:40.346Z,99882.41
2022-10-12T01:57:18.117Z,99876.41
2022-10-12T01:59:55.842Z,99882.38
2022-10-12T02:02:31.209Z,99873.66
2022-10-12T02:05:03.702Z,99878.81
2022-10-12T02:07:42.257Z,99884.34
2022-10-12T02:10:14.336Z,99883.59
2022-10-12T02:12:44.824Z,99881.19
2022-10-12T02:15:14.474Z,99887.94
2022-10-12T02:17:47.904Z,99883.09
2022-10-12T02:20:18.744Z,99888.75
2022-10-12T02:22:50.042Z,99878.69
2022-10-12T02:25:22.665Z,99893.41
2022-10-12T02:27:56.787Z,99880.22
2022-10-12T02:30:25.047Z,99875.06
2022-10-12T02:32:59.033Z,99881.84
2022-10-12T02:35:36.057Z,99875.91
2022-10-12T02:38:10.681Z,99875.94
2022-10-12T02:40:42.899Z,99878.28
2022-10-12T02:43:16.806Z,99871.06
2022-10-12T02:45:47.917Z,99870.66
2022-10-12T02:48:20.973Z,99861.50
2022-10-12T02:50:52.490Z,99862.31
2022-10-12T02:53:21.807Z,99857.13
2022-10-12T02:55:50.724Z,99851.56
2022-10-12T02:58:19.016Z,99853.50
2022-10-12T03:00:47.938Z,99849.53
2022-10-12T03:03:17.511Z,99847.19
2022-10-12T03:05:45.908Z,99845.16
2022-10-12T03:08:13.850Z,99851.56
2022-10-12T03:10:41.747Z,99846.34
2022-10-12T03:13:09.636Z,99840.72
2022-10-12T03:15:37.603Z,99853.09
2022-10-12T03:18:05.547Z,99848.97
2022-10-12T03:20:34.814Z,99851.91
2022-10-12T03:23:02.676Z,99857.50
2022-10-12T03:25:30.831Z,99854.34
2022-10-12T03:27:58.698Z,99852.28
2022-10-12T03:30:26.573Z,99857.75
2022-10-12T03:32:54.380Z,99863.75
2022-10-12T03:35:22.392Z,99868.09
2022-10-12T03:37:51.636Z,99865.34
2022-10-12T03:40:19.419Z,99863.78
2022-10-12T03:42:47.249Z,99862.94
2022-10-12T03:45:15.127Z,99862.91
2022-10-12T03:47:43.107Z,99863.78
2022-10-12T03:50:11.138Z,99866.97
2022-10-12T03:52:38.980Z,99854.66
2022-10-12T03:55:09.093Z,99864.19
2022-10-12T03:57:37.273Z,99859.47
2022-10-12T04:00:06.469Z,99859.06
2022-10-12T04:02:39.231Z,99865.47
2022-10-12T04:05:07.590Z,99861.81
2022-10-12T04:07:36.369Z,99869.84
2022-10-12T04:10:04.951Z,99870.69
2022-10-12T04:12:34.285Z,99873.47
2022-10-12T04:15:02.157Z,99872.31
2022-10-12T04:17:30.037Z,99877.78
2022-10-12T04:19:58.038Z,99871.13
2022-10-12T04:22:25.978Z,99871.88
2022-10-12T04:24:53.930Z,99875.91
2022-10-12T04:27:21.749Z,99874.25
2022-10-12T04:29:50.983Z,99871.91
2022-10-12T04:32:18.825Z,99875.47
2022-10-12T04:34:46.742Z,99878.63
2022-10-12T04:37:14.637Z,99879.78
2022-10-12T04:39:42.604Z,99882.97
2022-10-12T04:42:10.483Z,99887.72
2022-10-12T04:44:38.353Z,99876.25
2022-10-12T04:47:07.550Z,99880.22
2022-10-12T04:49:35.429Z,99881.72
2022-10-12T04:52:03.232Z,99889.25
2022-10-12T04:54:32.747Z,99892.06
2022-10-12T04:57:00.846Z,99890.91
2022-10-12T04:59:28.700Z,99891.69
2022-10-12T05:01:56.634Z,99886.41
2022-10-12T05:04:26.287Z,99892.13
2022-10-12T05:06:54.703Z,99887.53
2022-10-12T05:09:22.516Z,99884.22
2022-10-12T05:11:50.374Z,99884.00
2022-10-12T05:14:18.213Z,99878.91
2022-10-12T05:16:46.017Z,99886.28
2022-10-12T05:19:13.874Z,99881.63
2022-10-12T05:21:43.084Z,99884.31
2022-10-12T05:24:11.899Z,99882.69
2022-10-12T05:26:39.784Z,99889.16
2022-10-12T05:29:07.722Z,99883.53
2022-10-12T05:31:35.535Z,99892.75
2022-10-12T05:34:03.685Z,99895.06
2022-10-12T05:36:31.604Z,99897.31
2022-10-12T05:39:00.887Z,99908.56
2022-10-12T05:41:28.962Z,99901.06
2022-10-12T05:43:56.780Z,99894.94
2022-10-12T05:46:24.772Z,99900.75
2022-10-12T05:48:52.805Z,99895.66
2022-10-12T05:51:24.112Z,99910.13
2022-10-12T05:53:54.852Z,99913.28
2022-10-12T05:56:24.242Z,99905.34
2022-10-12T05:58:52.140Z,99905.38
2022-10-12T06:01:19.977Z,99902.81
2022-10-12T06:03:47.802Z,99905.59
2022-10-12T06:06:15.800Z,99916.34
2022-10-12T06:08:43.576Z,99916.81
2022-10-12T06:11:11.430Z,99909.59
2022-10-12T06:13:40.675Z,99910.31
2022-10-12T06:16:08.910Z,99910.31
2022-10-12T06:18:36.821Z,99906.59
2022-10-12T06:21:28.488Z,99905.13
2022-10-12T06:23:52.786Z,99906.59
2022-10-12T06:26:20.702Z,99902.88
2022-10-12T06:28:49.894Z,99901.44
2022-10-12T06:31:17.790Z,99909.31
2022-10-12T06:33:45.636Z,99903.41
2022-10-12T06:36:13.468Z,99911.88
2022-10-12T06:38:41.323Z,99904.72
2022-10-12T06:41:09.149Z,99906.41
2022-10-12T06:43:37.001Z,99897.66
2022-10-12T06:46:06.445Z,99903.41
2022-10-12T06:48:34.300Z,99903.56
2022-10-12T06:51:02.368Z,99903.50
2022-10-12T06:53:32.854Z,99909.66
2022-10-12T06:56:00.597Z,99904.31
2022-10-12T06:58:28.411Z,99906.13
2022-10-12T07:00:56.366Z,99909.44
2022-10-12T07:03:25.613Z,99910.41
2022-10-12T07:05:53.543Z,99904.31
2022-10-12T07:08:21.575Z,99903.88
2022-10-12T07:10:49.447Z,99903.16
2022-10-12T07:13:17.290Z,99909.56
2022-10-12T07:15:50.228Z,99909.41
2022-10-12T07:18:18.013Z,99902.53
2022-10-12T07:20:47.420Z,99901.94
2022-10-12T07:23:15.346Z,99906.34
2022-10-12T07:25:48.923Z,99911.91
2022-10-12T07:28:17.144Z,99915.59
2022-10-12T07:30:45.167Z,99922.16
2022-10-12T07:33:13.251Z,99917.78
2022-10-12T07:36:03.211Z,99923.38
2022-10-12T07:38:30.591Z,99915.81
2022-10-12T07:41:00.910Z,99918.16
2022-10-12T07:43:29.286Z,99919.75
2022-10-12T07:45:57.570Z,99920.53
2022-10-12T07:48:25.537Z,99930.50
2022-10-12T07:50:53.361Z,99921.34
2022-10-12T07:53:21.335Z,99917.78
2022-10-12T07:55:50.728Z,99923.38
2022-10-12T07:58:18.583Z,99922.16
2022-10-12T08:00:46.447Z,99934.50
2022-10-12T08:03:14.304Z,99927.31
2022-10-12T08:05:42.312Z,99928.09
2022-10-12T08:08:10.209Z,99921.72
2022-10-12T08:10:38.298Z,99919.34
2022-10-12T08:13:07.452Z,99920.88
2022-10-12T08:15:35.278Z,99916.34
2022-10-12T08:18:03.146Z,99919.41
2022-10-12T08:20:31.000Z,99914.28
2022-10-12T08:22:58.925Z,99916.22
2022-10-12T08:25:27.086Z,99911.88
2022-10-12T08:27:54.941Z,99911.31
2022-10-12T08:30:26.890Z,99911.13
2022-10-12T08:32:54.828Z,99914.16
2022-10-12T08:35:22.820Z,99914.03
2022-10-12T08:37:50.676Z,99907.56
2022-10-12T08:40:26.660Z,99906.34
2022-10-12T08:43:02.052Z,99904.50
2022-10-12T08:45:40.988Z,99904.38
2022-10-12T08:48:13.775Z,99906.72
2022-10-12T08:50:47.447Z,99908.34
2022-10-12T08:53:20.360Z,99902.56
2022-10-12T08:55:48.275Z,99899.66
2022-10-12T08:58:18.521Z,99896.53
2022-10-12T09:00:49.886Z,99897.56
2022-10-12T09:03:31.587Z,99891.47
2022-10-12T09:06:09.073Z,99896.63
2022-10-12T09:08:49.155Z,99900.09
2022-10-12T09:11:29.667Z,99904.47
2022-10-12T09:14:03.917Z,99900.75
2022-10-12T09:16:36.901Z,99892.88
2022-10-12T09:19:09.281Z,99903.03
2022-10-12T09:21:40.724Z,99898.44
2022-10-12T09:24:17.575Z,99897.94
2022-10-12T09:26:47.771Z,99890.78
2022-10-12T09:29:24.421Z,99892.19
2022-10-12T09:32:07.506Z,99899.09
2022-10-12T09:34:36.777Z,99900.09
2022-10-12T09:37:05.663Z,99904.75
2022-10-12T09:39:37.689Z,99908.84
2022-10-12T09:42:05.630Z,99900.63
2022-10-12T09:44:40.008Z,99910.88
2022-10-12T09:47:26.945Z,99911.66
2022-10-12T09:49:58.377Z,99901.25
2022-10-12T09:52:30.671Z,99898.19
2022-10-12T09:55:03.659Z,99895.38
2022-10-12T09:57:37.015Z,99887.97
2022-10-12T10:00:08.781Z,99891.28
2022-10-12T10:02:51.657Z,99896.25
2022-10-12T10:05:25.983Z,99894.44
2022-10-12T10:07:54.736Z,99896.41
2022-10-12T10:10:29.674Z,99901.25
2022-10-12T10:13:01.491Z,99891.00
2022-10-12T10:15:32.589Z,99888.28
2022-10-12T10:18:04.707Z,99892.34
2022-10-12T10:20:44.534Z,99901.28
2022-10-12T10:23:25.712Z,99902.41
2022-10-12T10:25:58.857Z,99901.13
2022-10-12T10:28:30.453Z,99896.63
2022-10-12T10:31:02.726Z,99898.31
2022-10-12T10:33:33.344Z,99890.41
2022-10-12T10:36:04.641Z,99899.28
2022-10-12T10:38:38.646Z,99892.28
2022-10-12T10:41:07.846Z,99896.25
2022-10-12T10:43:36.567Z,99898.75
2022-10-12T10:46:05.801Z,99884.34
2022-10-12T10:48:51.357Z,99884.47
2022-10-12T10:51:19.346Z,99885.06
2022-10-12T10:53:49.825Z,99874.69
2022-10-12T10:56:20.314Z,99889.41
2022-10-12T10:58:52.522Z,99889.38
2022-10-12T11:01:25.233Z,99882.81
2022-10-12T11:03:59.793Z,99886.06
2022-10-12T11:06:36.400Z,99873.63
2022-10-12T11:09:08.210Z,99875.03
2022-10-12T11:11:39.130Z,99871.88
2022-10-12T11:14:15.524Z,99869.72
2022-10-12T11:16:48.149Z,99856.34
2022-10-12T11:19:27.461Z,99850.78
2022-10-12T11:21:57.959Z,99848.50
2022-10-12T11:24:27.965Z,99852.16
2022-10-12T11:27:02.369Z,99851.13
2022-10-12T11:29:30.593Z,99843.19
2022-10-12T11:32:04.231Z,99842.34
2022-10-12T11:34:43.900Z,99837.44
2022-10-12T11:37:20.009Z,99832.66
2022-10-12T11:39:53.673Z,99840.50
2022-10-12T11:42:30.382Z,99836.22
2022-10-12T11:45:00.630Z,99839.03
2022-10-12T11:47:37.115Z,99827.00
2022-10-12T11:50:15.714Z,99836.94
2022-10-12T11:52:48.210Z,99822.53
2022-10-12T11:55:43.251Z,99820.06
2022-10-12T11:58:15.956Z,99818.28
2022-10-12T12:01:00.189Z,99822.22
2022-10-12T12:03:34.936Z,99808.16
2022-10-12T12:06:38.155Z,99817.63
2022-10-12T12:09:21.927Z,99817.72
2022-10-12T12:11:49.887Z,99812.88
2022-10-12T12:15:09.592Z,99817.97
2022-10-12T12:17:39.031Z,99807.41
2022-10-12T12:20:51.563Z,99796.34
2022-10-12T12:23:22.226Z,99801.53
2022-10-12T12:26:06.529Z,99796.78
2022-10-12T12:28:35.333Z,99790.34
2022-10-12T12:31:07.011Z,99797.00
2022-10-12T12:33:41.785Z,99793.22
2022-10-12T12:36:12.779Z,99784.56
2022-10-12T12:38:47.309Z,99787.69
2022-10-12T12:41:18.251Z,99788.16
2022-10-12T12:43:58.912Z,99784.97
2022-10-12T12:47:33.082Z,99792.22
2022-10-12T12:50:00.321Z,99782.66
2022-10-12T12:52:30.799Z,99779.06
2022-10-12T12:55:30.575Z,99784.72
2022-10-12T12:58:17.560Z,99779.81
2022-10-12T13:00:53.219Z,99781.72
2022-10-12T13:03:39.638Z,99785.25
2022-10-12T13:06:49.428Z,99780.09
2022-10-12T13:09:44.972Z,99775.63
2022-10-12T13:12:27.389Z,99774.47
2022-10-12T13:15:11.714Z,99773.06
2022-10-12T13:17:55.276Z,99777.41
2022-10-12T13:20:26.377Z,99768.28
2022-10-12T13:22:57.799Z,99771.38
2022-10-12T13:25:33.580Z,99773.66
2022-10-12T13:28:05.055Z,99769.75
2022-10-12T13:30:41.141Z,99764.88
2022-10-12T13:33:19.655Z,99766.59
2022-10-12T13:35:53.927Z,99765.03
2022-10-12T13:38:24.044Z,99755.88
2022-10-12T13:40:58.818Z,99756.06
2022-10-12T13:43:39.345Z,99752.13
2022-10-12T13:46:08.354Z,99755.56
2022-10-12T13:51:26.563Z,99753.09
2022-10-12T13:53:54.626Z,99758.00
2022-10-12T13:56:25.940Z,99745.22
2022-10-12T13:58:58.368Z,99741.47
2022-10-12T14:01:27.997Z,99743.19
2022-10-12T14:04:04.894Z,99739.38
2022-10-12T14:06:34.373Z,99739.06
2022-10-12T14:09:09.529Z,99738.63
2022-10-12T14:11:38.070Z,99740.19
2022-10-12T14:14:06.416Z,99737.03
2022-10-12T14:16:35.685Z,99738.63
2022-10-12T14:19:20.090Z,99736.84
2022-10-12T14:21:50.089Z,99728.25
2022-10-12T14:24:20.125Z,99734.06
2022-10-12T14:26:55.832Z,99741.50
2022-10-12T14:29:34.910Z,99726.78
2022-10-12T14:32:06.662Z,99732.91
2022-10-12T14:34:46.661Z,99738.88
2022-10-12T14:37:28.233Z,99737.31
2022-10-12T14:40:00.786Z,99737.72
2022-10-12T14:42:33.968Z,99737.19
2022-10-12T14:45:02.600Z,99734.75
2022-10-12T14:47:33.549Z,99737.53
2022-10-12T14:50:07.791Z,99735.16
2022-10-12T14:52:41.712Z,99729.44
2022-10-12T14:55:15.230Z,99723.66
2022-10-12T14:57:43.158Z,99725.91
2022-10-12T15:00:15.520Z,99725.44
2022-10-12T15:02:45.234Z,99719.81
2022-10-12T15:05:14.601Z,99720.53
2022-10-12T15:07:42.634Z,99718.94
2022-10-12T15:10:11.350Z,99720.22
2022-10-12T15:12:39.397Z,99725.34
2022-10-12T15:15:27.877Z,99716.88
2022-10-12T15:17:58.686Z,99707.28
2022-10-12T15:20:26.879Z,99704.66
2022-10-12T15:22:54.655Z,99705.84
2022-10-12T15:25:25.671Z,99707.88
2022-10-12T15:27:53.571Z,99703.66
2022-10-12T15:30:21.458Z,99711.53
2022-10-12T15:32:49.591Z,99713.50
2022-10-12T15:35:22.420Z,99710.19
2022-10-12T15:37:50.608Z,99715.69
2022-10-12T15:40:19.663Z,99714.28
2022-10-12T15:42:48.470Z,99709.03
2022-10-12T15:45:22.847Z,99713.66
2022-10-12T15:47:51.955Z,99712.06
2022-10-12T15:50:23.144Z,99712.03
2022-10-12T15:52:51.303Z,99703.56
2022-10-12T15:55:21.090Z,99695.50
2022-10-12T15:57:49.409Z,99698.13
2022-10-12T16:00:20.057Z,99701.47
2022-10-12T16:02:48.143Z,99697.28
2022-10-12T16:05:20.566Z,99697.31
2022-10-12T16:07:50.230Z,99689.31
2022-10-12T16:10:19.725Z,99686.09
2022-10-12T16:12:49.907Z,99694.72
2022-10-12T16:15:21.379Z,99691.44
2022-10-12T16:17:49.676Z,99682.03
2022-10-12T16:20:18.315Z,99673.81
2022-10-12T16:22:46.477Z,99668.28
2022-10-12T16:25:17.876Z,99684.34
2022-10-12T16:27:46.771Z,99686.69
2022-10-12T16:30:15.665Z,99678.78
2022-10-12T16:32:44.014Z,99674.53
2022-10-12T16:35:12.912Z,99682.38
2022-10-12T16:37:40.952Z,99681.25
2022-10-12T16:40:10.460Z,99687.91
2022-10-12T16:42:39.778Z,99692.69
2022-10-12T16:45:08.937Z,99693.03
2022-10-12T16:47:41.887Z,99692.94
2022-10-12T16:50:11.317Z,99692.94
2022-10-12T16:52:39.877Z,99695.75
2022-10-12T16:55:08.656Z,99693.69
2022-10-12T16:57:36.591Z,99696.66
2022-10-12T17:00:07.263Z,99696.88
2022-10-12T17:02:35.301Z,99692.28
2022-10-12T17:05:03.903Z,99691.84
2022-10-12T17:07:32.137Z,99687.72
2022-10-12T17:09:59.976Z,99685.38
2022-10-12T17:12:28.247Z,99685.00
2022-10-12T17:14:56.188Z,99688.09
2022-10-12T17:17:25.393Z,99689.13
2022-10-12T17:19:53.297Z,99688.00
2022-10-12T17:22:21.137Z,99686.22
2022-10-12T17:24:49.117Z,99685.47
2022-10-12T17:27:17.337Z,99686.31
2022-10-12T17:29:45.466Z,99690.97
2022-10-12T17:32:14.229Z,99696.75
2022-10-12T17:34:45.653Z,99697.03
2022-10-12T17:37:14.633Z,99703.28
2022-10-12T17:39:45.038Z,99705.28
2022-10-12T17:42:12.789Z,99702.81
2022-10-12T17:44:40.608Z,99706.22
2022-10-12T17:47:08.569Z,99702.59
2022-10-12T17:49:36.455Z,99707.41
2022-10-12T17:52:06.487Z,99701.59
2022-10-12T17:54:34.356Z,99706.16
2022-10-12T17:57:02.252Z,99705.19
2022-10-12T17:59:30.097Z,99700.78
2022-10-12T18:01:57.946Z,99696.34
2022-10-12T18:04:25.792Z,99702.44
2022-10-12T18:06:53.694Z,99706.25
2022-10-12T18:09:22.915Z,99700.53
2022-10-12T18:11:50.703Z,99698.19
2022-10-12T18:14:19.018Z,99695.91
2022-10-12T18:16:46.891Z,99700.19
2022-10-12T18:19:14.913Z,99703.94
2022-10-12T18:21:42.763Z,99700.19
2022-10-12T18:24:16.975Z,99699.69
2022-10-12T18:26:48.185Z,99698.78
2022-10-12T18:29:19.147Z,99700.31
2022-10-12T18:31:47.569Z,99688.63
2022-10-12T18:34:15.403Z,99702.13
2022-10-12T18:36:43.247Z,99696.50
2022-10-12T18:39:11.244Z,99695.09
2022-10-12T18:41:39.158Z,99694.28
2022-10-12T18:44:09.151Z,99697.25
2022-10-12T18:46:37.499Z,99694.09
2022-10-12T18:49:08.172Z,99691.84
2022-10-12T18:51:38.487Z,99694.97
2022-10-12T18:54:07.396Z,99694.22
2022-10-12T18:56:37.165Z,99699.25
2022-10-12T18:59:05.692Z,99695.78
2022-10-12T19:01:35.426Z,99693.81
2022-10-12T19:04:03.834Z,99697.31
2022-10-12T19:06:34.074Z,99696.44
2022-10-12T19:09:02.313Z,99697.25
2022-10-12T19:11:31.163Z,99684.31
2022-10-12T19:14:01.292Z,99684.47
2022-10-12T19:16:30.206Z,99689.91
2022-10-12T19:19:01.429Z,99694.22
2022-10-12T19:21:29.793Z,99693.88
2022-10-12T19:23:57.879Z,99705.69
2022-10-12T19:26:27.959Z,99703.88
2022-10-12T19:28:58.277Z,99710.69
2022-10-12T19:31:28.539Z,99706.91
2022-10-12T19:33:57.836Z,99707.19
2022-10-12T19:36:28.156Z,99693.91
2022-10-12T19:38:57.286Z,99691.63
2022-10-12T19:41:25.832Z,99691.78
2022-10-12T19:43:54.216Z,99694.59
2022-10-12T19:46:22.307Z,99690.63
2022-10-12T19:48:51.337Z,99688.69
2022-10-12T19:51:20.594Z,99682.72
2022-10-12T19:53:53.300Z,99692.75
2022-10-12T19:56:22.253Z,99698.47
2022-10-12T19:58:52.902Z,99686.00
2022-10-12T20:01:23.129Z,99686.66
2022-10-12T20:03:51.671Z,99689.06
2022-10-12T20:06:21.173Z,99688.09
2022-10-12T20:08:52.765Z,99684.25
2022-10-12T20:11:24.506Z,99684.13
2022-10-12T20:13:53.275Z,99680.41
2022-10-12T20:16:21.710Z,99682.97
2022-10-12T20:18:50.412Z,99682.28
2022-10-12T20:21:21.031Z,99678.34
2022-10-12T20:23:51.509Z,99683.44
2022-10-12T20:26:21.867Z,99691.91
2022-10-12T20:28:50.408Z,99685.81
2022-10-12T20:31:19.394Z,99691.97
2022-10-12T20:33:51.561Z,99701.44
2022-10-12T20:36:22.430Z,99681.38
2022-10-12T20:38:51.911Z,99691.31
2022-10-12T20:41:21.600Z,99694.34
2022-10-12T20:43:49.804Z,99691.78
2022-10-12T20:46:19.053Z,99700.06
2022-10-12T20:48:47.740Z,99698.09
2022-10-12T20:51:20.325Z,99694.09
2022-10-12T20:53:48.209Z,99695.91
2022-10-12T20:56:17.472Z,99693.91
2022-10-12T20:58:45.367Z,99692.69
2022-10-12T21:01:15.595Z,99681.50
2022-10-12T21:03:43.677Z,99684.16
2022-10-12T21:06:13.728Z,99671.34
2022-10-12T21:08:41.773Z,99687.44
2022-10-12T21:11:10.774Z,99673.38
2022-10-12T21:13:41.251Z,99681.97
2022-10-12T21:16:09.430Z,99686.41
2022-10-12T21:18:38.385Z,99682.56
2022-10-12T21:21:11.397Z,99682.72
2022-10-12T21:23:39.688Z,99683.53
2022-10-12T21:26:12.230Z,99686.38
2022-10-12T21:28:41.711Z,99671.97
2022-10-12T21:31:10.037Z,99683.09
2022-10-12T21:33:39.914Z,99665.25
2022-10-12T21:36:09.963Z,99667.91
2022-10-12T21:38:38.179Z,99672.72
2022-10-12T21:41:06.890Z,99666.41
2022-10-12T21:43:35.453Z,99669.53
2022-10-12T21:46:06.077Z,99666.97
2022-10-12T21:48:34.200Z,99674.09
2022-10-12T21:51:03.111Z,99669.94
2022-10-12T21:53:31.993Z,99670.50
2022-10-12T21:55:59.823Z,99674.22
2022-10-12T21:58:27.700Z,99670.31
2022-10-12T22:01:07.003Z,99687.88
2022-10-12T22:03:35.173Z,99677.66
2022-10-12T22:06:03.286Z,99681.09
2022-10-12T22:08:31.195Z,99679.59
2022-10-12T22:11:04.117Z,99679.50
2022-10-12T22:13:31.973Z,99671.88
2022-10-12T22:16:04.440Z,99670.19
2022-10-12T22:18:33.757Z,99670.06
2022-10-12T22:21:03.985Z,99659.63
2022-10-12T22:23:32.503Z,99657.84
2022-10-12T22:26:06.348Z,99656.50
2022-10-12T22:28:34.957Z,99653.56
2022-10-12T22:31:06.495Z,99655.50
2022-10-12T22:33:35.779Z,99655.69
2022-10-12T22:36:06.821Z,99655.06
2022-10-12T22:38:35.900Z,99657.78
2022-10-12T22:41:06.541Z,99657.78
2022-10-12T22:43:39.177Z,99658.31
2022-10-12T22:46:07.522Z,99659.91
2022-10-12T22:48:38.620Z,99662.25
2022-10-12T22:51:08.104Z,99664.03
2022-10-12T22:53:37.248Z,99660.03
2022-10-12T22:56:07.514Z,99657.47
2022-10-12T22:58:36.563Z,99663.69
2022-10-12T23:01:06.952Z,99667.31
2022-10-12T23:03:37.663Z,99673.91
2022-10-12T23:06:12.104Z,99663.16
2022-10-12T23:08:40.230Z,99650.28
2022-10-12T23:11:10.248Z,99666.19
2022-10-12T23:13:39.373Z,99662.66
2022-10-12T23:16:09.791Z,99656.22
2022-10-12T23:18:39.881Z,99656.31
2022-10-12T23:21:09.920Z,99659.00
2022-10-12T23:23:38.786Z,99655.06
2022-10-12T23:26:08.933Z,99659.78
2022-10-12T23:28:36.784Z,99661.81
2022-10-12T23:31:07.732Z,99666.84
2022-10-12T23:33:35.772Z,99659.22
2022-10-12T23:36:07.518Z,99664.34
2022-10-12T23:38:36.763Z,99659.88
2022-10-12T23:41:04.860Z,99654.50
2022-10-12T23:43:33.546Z,99646.97
2022-10-12T23:46:02.788Z,99644.59
2022-10-12T23:48:31.155Z,99640.06
2022-10-12T23:50:59.353Z,99645.94
2022-10-12T23:53:29.062Z,99651.81
2022-10-12T23:55:57.313Z,99654.44
2022-10-12T23:58:25.093Z,99657.63
